Time;durP1;ratioP1;P1;durP2;ratioP2;P2;SDS_P1;SDS_P2;PMS_P1;PMS_P2;Temp;Humidity;BMP_temperature;BMP_pressure;BME280_temperature;BME280_humidity;BME280_pressure;Samples;Min_cycle;Max_cycle;Signal;HPM_P1;HPM_P2
2022/08/19 00:01:55;;;;;;;14.45;7.42;;;;;;;21.13;74.93;98714.11;1790944;80;21035;-85
2022/08/19 00:04:27;;;;;;;13.00;8.10;;;;;;;21.10;73.37;98705.08;1794107;79;21266;-87
2022/08/19 00:06:54;;;;;;;12.55;7.12;;;;;;;21.12;73.90;98703.65;1810332;79;21039;-87
2022/08/19 00:09:23;;;;;;;9.80;6.65;;;;;;;21.14;73.25;98703.89;1792633;80;20999;-87
2022/08/19 00:11:51;;;;;;;15.00;7.47;;;;;;;21.17;73.59;98706.77;1792644;80;21023;-87
2022/08/19 00:14:18;;;;;;;12.35;7.53;;;;;;;21.20;73.76;98711.84;1792575;80;20980;-87
2022/08/19 00:16:47;;;;;;;13.22;7.55;;;;;;;21.24;74.00;98719.91;1792635;79;21004;-87
2022/08/19 00:19:15;;;;;;;13.98;7.42;;;;;;;21.24;73.82;98711.97;1792688;80;20964;-87
2022/08/19 00:21:43;;;;;;;13.03;7.30;;;;;;;21.30;74.16;98713.31;1792813;80;21395;-87
2022/08/19 00:24:12;;;;;;;16.87;8.58;;;;;;;21.32;73.87;98710.08;1792497;80;21050;-86
2022/08/19 00:26:40;;;;;;;14.85;8.65;;;;;;;21.31;74.46;98717.17;1770699;80;20979;-87
2022/08/19 00:29:09;;;;;;;15.83;8.40;;;;;;;21.31;74.76;98720.27;1791408;80;20995;-87
2022/08/19 00:31:36;;;;;;;17.62;9.00;;;;;;;21.28;74.30;98723.16;1791768;80;20963;-87
2022/08/19 00:34:03;;;;;;;17.40;9.90;;;;;;;21.27;75.05;98713.08;1769138;80;20980;-87
2022/08/19 00:36:29;;;;;;;19.23;9.35;;;;;;;21.26;74.61;98715.34;1781148;80;21006;-86
2022/08/19 00:38:56;;;;;;;15.53;8.70;;;;;;;21.20;76.03;98713.16;1777489;80;21009;-87
2022/08/19 00:41:25;;;;;;;14.98;9.03;;;;;;;21.15;75.83;98721.45;1790250;80;21012;-86
2022/08/19 00:44:10;;;;;;;16.25;9.18;;;;;;;21.12;76.97;98719.50;1790094;80;21036;-87
2022/08/19 00:46:39;;;;;;;17.17;8.85;;;;;;;21.05;75.93;98717.81;1776549;80;21049;-85
2022/08/19 00:49:20;;;;;;;13.28;8.35;;;;;;;20.95;74.61;98720.74;1786145;80;21008;-87
2022/08/19 00:51:52;;;;;;;17.73;8.48;;;;;;;20.88;75.78;98710.28;1791358;80;20913;-86
2022/08/19 00:54:19;;;;;;;15.15;8.10;;;;;;;20.81;76.76;98722.63;1790321;80;21020;-87
2022/08/19 00:56:47;;;;;;;13.38;8.30;;;;;;;20.76;76.91;98725.23;1790513;80;21014;-87
2022/08/19 00:59:15;;;;;;;13.90;7.83;;;;;;;20.67;75.24;98722.76;1769208;80;21022;-86
2022/08/19 01:01:45;;;;;;;17.30;8.33;;;;;;;20.61;75.88;98713.97;1795742;80;21237;-86
2022/08/19 01:04:13;;;;;;;17.12;8.45;;;;;;;20.54;77.10;98708.75;1792074;80;21056;-87
2022/08/19 01:06:41;;;;;;;13.65;8.40;;;;;;;20.53;76.71;98711.00;1792019;80;21058;-87
2022/08/19 01:09:08;;;;;;;16.32;7.80;;;;;;;20.52;77.57;98723.38;1792013;80;21027;-87
2022/08/19 01:11:41;;;;;;;21.10;8.68;;;;;;;20.48;77.53;98717.11;1791574;80;21075;-87
2022/08/19 01:14:08;;;;;;;14.15;7.60;;;;;;;20.47;77.85;98716.25;1792637;80;21031;-87
2022/08/19 01:16:37;;;;;;;17.92;8.78;;;;;;;20.50;77.25;98715.20;1792586;80;20968;-87
2022/08/19 01:19:10;;;;;;;12.70;8.20;;;;;;;20.45;78.02;98718.16;1792670;80;21004;-87
2022/08/19 01:21:42;;;;;;;12.30;7.78;;;;;;;20.43;78.16;98720.93;1793019;80;21043;-87
2022/08/19 01:24:09;;;;;;;12.75;7.95;;;;;;;20.41;77.88;98724.61;1792256;80;21015;-87
2022/08/19 01:26:43;;;;;;;14.73;8.80;;;;;;;20.38;78.52;98729.64;1792778;80;21049;-87
2022/08/19 01:29:10;;;;;;;16.35;7.60;;;;;;;20.38;78.25;98732.77;1780982;80;20998;-87
2022/08/19 01:31:38;;;;;;;13.10;7.40;;;;;;;20.38;78.86;98732.28;1793076;80;20979;-86
2022/08/19 01:34:07;;;;;;;12.07;7.40;;;;;;;20.42;78.40;98730.27;1792916;80;20980;-87
2022/08/19 01:36:45;;;;;;;11.93;8.25;;;;;;;20.49;78.71;98738.59;1792772;80;21042;-87
2022/08/19 01:39:16;;;;;;;13.48;7.70;;;;;;;20.54;78.33;98735.16;1763579;80;21007;-87
2022/08/19 01:41:43;;;;;;;16.52;9.10;;;;;;;20.55;78.07;98736.83;1761502;81;21059;-87
2022/08/19 01:44:11;;;;;;;13.08;8.88;;;;;;;20.58;78.07;98740.58;1767489;80;20987;-87
2022/08/19 01:46:38;;;;;;;12.23;8.63;;;;;;;20.58;77.82;98745.86;1792829;80;21266;-87
2022/08/19 01:49:07;;;;;;;16.37;9.68;;;;;;;20.56;77.70;98744.64;1791149;80;20980;-87
2022/08/19 01:51:35;;;;;;;15.85;9.45;;;;;;;20.57;78.58;98745.48;1791045;80;20992;-87
2022/08/19 01:54:02;;;;;;;17.25;9.33;;;;;;;20.55;77.72;98747.39;1792225;80;21069;-86
2022/08/19 01:56:29;;;;;;;16.25;9.23;;;;;;;20.51;78.01;98750.72;1746337;82;21029;-87
2022/08/19 01:59:01;;;;;;;16.55;9.45;;;;;;;20.48;78.15;98741.71;1792493;80;20987;-87
2022/08/19 02:01:31;;;;;;;19.27;9.23;;;;;;;20.43;78.39;98742.05;1767688;80;21009;-86
2022/08/19 02:03:56;;;;;;;14.73;8.63;;;;;;;20.38;77.88;98734.09;1792511;79;21530;-87
2022/08/19 02:06:23;;;;;;;15.45;8.60;;;;;;;20.34;78.52;98736.09;1793044;80;21011;-86
2022/08/19 02:08:50;;;;;;;14.68;8.20;;;;;;;20.30;78.29;98736.43;1810307;79;20984;-87
2022/08/19 02:11:23;;;;;;;15.20;8.75;;;;;;;20.23;78.33;98743.47;1808097;78;21066;-86
2022/08/19 02:13:49;;;;;;;;;;;;;;;20.16;78.45;98752.75;1773138;80;21042;-85
2022/08/19 02:16:18;;;;;;;15.83;8.25;;;;;;;20.12;79.80;98743.37;1792489;80;20096;-87
2022/08/19 02:18:48;;;;;;;12.95;7.90;;;;;;;20.06;79.13;98743.80;1792177;80;21035;-86
2022/08/19 02:21:21;;;;;;;15.78;8.68;;;;;;;20.04;79.33;98743.06;1792126;80;21059;-86
2022/08/19 02:23:49;;;;;;;12.82;8.00;;;;;;;20.01;78.95;98738.81;1792294;80;21019;-86
2022/08/19 02:26:16;;;;;;;15.43;8.50;;;;;;;19.99;79.12;98749.95;1791992;80;21039;-87
2022/08/19 02:28:43;;;;;;;16.57;8.25;;;;;;;19.97;79.31;98741.30;1792258;80;21004;-87
2022/08/19 02:31:17;;;;;;;15.45;7.62;;;;;;;19.97;79.48;98738.66;1790134;80;20992;-86
2022/08/19 02:33:46;;;;;;;13.62;8.18;;;;;;;19.96;79.59;98748.03;1791935;80;20975;-86
2022/08/19 02:36:14;;;;;;;11.35;7.55;;;;;;;19.96;79.10;98742.75;1790466;80;21038;-86
2022/08/19 02:38:43;;;;;;;11.73;7.85;;;;;;;19.92;78.99;98737.33;1790532;80;21110;-87
2022/08/19 02:41:17;;;;;;;12.88;8.40;;;;;;;19.87;79.82;98745.53;1792237;80;21059;-87
2022/08/19 02:43:44;;;;;;;17.35;8.75;;;;;;;19.88;79.62;98757.78;1792535;80;20983;-87
2022/08/19 02:46:24;;;;;;;13.03;8.05;;;;;;;19.86;78.78;98753.93;1792104;80;20995;-85
2022/08/19 02:49:00;;;;;;;15.72;7.75;;;;;;;19.82;79.62;98755.09;1783594;80;21467;-87
2022/08/19 02:51:35;;;;;;;13.95;8.58;;;;;;;19.83;79.64;98753.29;1795451;80;21012;-87
2022/08/19 02:54:03;;;;;;;15.83;8.75;;;;;;;19.81;80.40;98743.31;1789944;80;20988;-87
2022/08/19 02:56:31;;;;;;;13.98;9.50;;;;;;;19.79;79.88;98751.33;1780914;80;21071;-87
2022/08/19 02:58:58;;;;;;;20.95;9.20;;;;;;;19.78;80.23;98754.09;1792359;80;20989;-87
2022/08/19 03:01:29;;;;;;;15.83;9.20;;;;;;;19.77;80.43;98750.59;1792546;80;21016;-87
2022/08/19 03:03:58;;;;;;;17.23;9.50;;;;;;;19.75;80.64;98751.17;1791209;80;20979;-87
2022/08/19 03:06:26;;;;;;;18.52;9.10;;;;;;;19.67;80.80;98756.09;1786577;80;21028;-87
2022/08/19 03:08:53;;;;;;;13.08;8.48;;;;;;;19.63;80.34;98758.09;1775435;80;20992;-87
2022/08/19 03:11:25;;;;;;;19.20;10.32;;;;;;;19.62;81.13;98765.65;1716944;84;21073;-87
2022/08/19 03:13:53;;;;;;;17.70;9.10;;;;;;;19.64;80.62;98761.11;1773888;79;21021;-87
2022/08/19 03:16:23;;;;;;;15.80;9.55;;;;;;;19.61;80.49;98766.58;1774214;81;21040;-88
2022/08/19 03:18:51;;;;;;;15.43;8.88;;;;;;;19.60;81.45;98765.39;1774268;81;20969;-88
2022/08/19 03:21:21;;;;;;;19.35;8.73;;;;;;;19.54;81.27;98771.08;1774505;81;21013;-88
2022/08/19 03:23:48;;;;;;;18.02;9.33;;;;;;;19.54;81.54;98773.72;1774484;81;21036;-88
2022/08/19 03:26:15;;;;;;;14.70;9.28;;;;;;;19.55;80.89;98774.91;1774439;81;20970;-87
2022/08/19 03:28:44;;;;;;;15.83;8.68;;;;;;;19.53;81.46;98774.16;1815954;79;20964;-88
2022/08/19 03:31:13;;;;;;;14.38;9.05;;;;;;;19.51;81.64;98774.74;1824845;78;21016;-88
2022/08/19 03:33:41;;;;;;;18.95;10.25;;;;;;;19.47;81.30;98775.90;1821498;78;21105;-88
2022/08/19 03:36:18;;;;;;;16.25;9.78;;;;;;;19.45;81.74;98777.80;1774403;81;21025;-87
2022/08/19 03:38:49;;;;;;;16.85;10.23;;;;;;;19.40;80.13;98780.74;1775151;80;21025;-88
2022/08/19 03:41:26;;;;;;;18.42;9.98;;;;;;;19.36;80.82;98781.03;1792473;80;21000;-88
2022/08/19 03:43:54;;;;;;;16.55;9.70;;;;;;;19.30;80.12;98782.75;1792422;80;21048;-88
2022/08/19 03:46:25;;;;;;;15.85;9.90;;;;;;;19.28;80.13;98782.40;1792488;80;20964;-88
2022/08/19 03:48:55;;;;;;;20.27;10.05;;;;;;;19.25;80.87;98779.11;1791728;80;21095;-87
2022/08/19 03:51:31;;;;;;;16.57;10.53;;;;;;;19.23;80.84;98786.27;1772076;80;20980;-88
2022/08/19 03:54:01;;;;;;;17.92;9.08;;;;;;;19.22;80.46;98787.23;1792227;79;20976;-88
2022/08/19 03:56:29;;;;;;;16.20;9.93;;;;;;;19.18;81.28;98783.95;1792503;80;21027;-88
2022/08/19 03:58:57;;;;;;;19.55;9.90;;;;;;;19.16;80.68;98787.16;1792424;80;21003;-88
2022/08/19 04:01:27;;;;;;;18.82;9.40;;;;;;;19.17;82.17;98782.25;1770664;80;20999;-88
2022/08/19 04:03:56;;;;;;;14.93;9.18;;;;;;;19.17;82.91;98784.05;1797525;79;20975;-88
2022/08/19 04:06:30;;;;;;;23.47;9.75;;;;;;;19.16;82.71;98792.88;1800563;80;20967;-88
2022/08/19 04:08:59;;;;;;;20.57;9.50;;;;;;;19.17;82.23;98799.86;1800775;80;21014;-88
2022/08/19 04:11:33;;;;;;;18.45;8.60;;;;;;;19.20;81.61;98793.05;1798791;80;21110;-88
2022/08/19 04:14:00;;;;;;;15.85;8.38;;;;;;;19.25;81.48;98802.35;1792464;80;21079;-87
2022/08/19 04:16:28;;;;;;;10.75;7.03;;;;;;;19.28;81.84;98806.12;1792574;80;21012;-87
2022/08/19 04:18:56;;;;;;;13.20;7.28;;;;;;;19.27;81.20;98803.09;1792718;80;20979;-88
2022/08/19 04:21:26;;;;;;;9.40;6.30;;;;;;;19.28;81.34;98807.44;1792619;80;21007;-87
2022/08/19 04:23:54;;;;;;;14.40;6.92;;;;;;;19.34;81.33;98809.28;1792798;80;20956;-87
2022/08/19 04:45:15;;;;;;;16.23;8.00;;;;;;;19.49;80.31;98821.45;1752650;79;21071;-90
2022/08/19 04:47:44;;;;;;;19.62;8.10;;;;;;;19.45;79.75;98814.70;1789523;79;21052;-88
2022/08/19 04:50:12;;;;;;;16.87;8.20;;;;;;;19.46;80.12;98813.77;1772834;81;21093;-89
2022/08/19 04:52:44;;;;;;;13.10;7.75;;;;;;;19.52;79.75;98817.77;1746005;81;21317;-89
2022/08/19 05:10:44;;;;;;;20.70;9.48;;;;;;;20.11;80.34;98822.15;1698276;80;21128;-87
2022/08/19 05:16:17;;;;;;;15.95;8.88;;;;;;;20.38;79.80;98819.89;1684201;84;21090;-88
2022/08/19 05:24:17;;;;;;;16.40;9.55;;;;;;;20.76;79.14;98815.05;1695857;84;20988;-88
2022/08/19 05:29:49;;;;;;;15.85;9.78;;;;;;;20.85;78.38;98821.84;1704488;79;21094;-88
2022/08/19 05:32:16;;;;;;;19.42;9.55;;;;;;;20.84;78.14;98814.84;1717820;80;21022;-89
2022/08/19 05:34:43;;;;;;;19.90;10.95;;;;;;;20.84;78.14;98813.53;1679092;81;21193;-88
2022/08/19 05:37:10;;;;;;;19.92;11.93;;;;;;;20.90;77.86;98816.20;1682932;83;21048;-88
2022/08/19 05:39:40;;;;;;;17.75;9.50;;;;;;;20.97;77.34;98819.24;1710014;80;21185;-85
2022/08/19 05:42:11;;;;;;;22.42;10.03;;;;;;;20.99;77.59;98819.52;1689920;82;21077;-88
2022/08/19 05:44:45;;;;;;;22.98;10.25;;;;;;;21.04;77.32;98820.50;1688741;84;20977;-88
2022/08/19 05:47:14;;;;;;;18.32;9.43;;;;;;;21.11;77.33;98818.24;1703480;84;21085;-88
2022/08/19 05:49:43;;;;;;;14.78;8.70;;;;;;;21.19;76.79;98819.39;1700819;84;21097;-88
2022/08/19 05:52:15;;;;;;;19.23;9.40;;;;;;;21.25;76.81;98810.17;1696079;84;21104;-87
2022/08/19 05:54:44;;;;;;;16.00;9.38;;;;;;;21.35;76.81;98809.02;1694169;84;20995;-88
2022/08/19 05:57:11;;;;;;;18.52;9.68;;;;;;;21.42;76.57;98816.35;1701119;84;21069;-88
2022/08/19 05:59:38;;;;;;;20.43;10.75;;;;;;;21.50;76.76;98806.56;1696326;83;21011;-87
2022/08/19 06:02:06;;;;;;;23.12;12.10;;;;;;;21.60;76.67;98814.65;1700138;84;21073;-88
2022/08/19 06:04:34;;;;;;;23.22;11.08;;;;;;;21.65;76.61;98814.67;1704500;83;21554;-79
2022/08/19 06:07:01;;;;;;;25.27;14.83;;;;;;;21.73;76.47;98811.45;1697970;84;21040;-81
2022/08/19 06:09:29;;;;;;;21.37;10.88;;;;;;;21.80;76.51;98807.36;1690712;84;21002;-79
2022/08/19 06:11:59;;;;;;;23.75;10.58;;;;;;;21.90;76.37;98807.51;1703040;83;21060;-79
2022/08/19 06:14:31;;;;;;;17.60;10.68;;;;;;;21.97;76.10;98812.70;1697253;83;21031;-80
2022/08/19 06:17:01;;;;;;;17.35;9.28;;;;;;;22.03;75.92;98810.91;1695912;83;21046;-80
2022/08/19 06:19:29;;;;;;;20.00;9.90;;;;;;;22.12;75.36;98813.80;1701990;83;21081;-80
2022/08/19 06:21:58;;;;;;;17.52;9.35;;;;;;;22.15;74.93;98807.80;1701058;83;21048;-80
2022/08/19 06:24:27;;;;;;;15.18;8.83;;;;;;;22.25;74.77;98806.64;1700633;84;21042;-79
2022/08/19 06:26:57;;;;;;;15.00;8.28;;;;;;;22.31;73.93;98806.16;1693269;83;21098;-79
2022/08/19 06:29:26;;;;;;;17.75;8.85;;;;;;;22.35;73.19;98811.58;1677203;84;21371;-80
2022/08/19 06:31:57;;;;;;;16.37;10.25;;;;;;;22.37;72.60;98804.34;1667827;84;21061;-80
2022/08/19 06:34:27;;;;;;;15.30;8.53;;;;;;;22.42;72.59;98802.66;1671487;84;21073;-80
2022/08/19 06:36:56;;;;;;;14.85;7.58;;;;;;;22.50;72.21;98812.19;1679916;84;21069;-80
2022/08/19 06:39:26;;;;;;;15.03;6.78;;;;;;;22.56;71.78;98806.41;1670490;84;20997;-81
2022/08/19 06:41:57;;;;;;;14.35;7.60;;;;;;;22.60;71.61;98813.14;1686447;84;21328;-81
2022/08/19 06:44:28;;;;;;;10.93;7.10;;;;;;;22.68;71.46;98806.38;1712713;82;21063;-80
2022/08/19 06:46:55;;;;;;;16.50;7.60;;;;;;;22.74;71.31;98820.00;1717937;82;21039;-80
2022/08/19 06:49:23;;;;;;;10.20;6.37;;;;;;;22.80;70.51;98813.34;1704779;82;21139;-79
2022/08/19 06:51:51;;;;;;;12.40;6.75;;;;;;;22.86;71.10;98815.52;1709831;82;21000;-79
2022/08/19 06:54:18;;;;;;;15.40;7.30;;;;;;;22.97;71.15;98817.30;1679247;84;21016;-80
2022/08/19 06:56:45;;;;;;;14.33;7.20;;;;;;;23.10;71.10;98816.70;1682990;84;21061;-80
2022/08/19 06:59:17;;;;;;;13.58;8.18;;;;;;;23.22;69.50;98812.20;1679604;84;21025;-79
2022/08/19 07:01:48;;;;;;;14.95;7.95;;;;;;;23.30;68.94;98815.53;1670145;84;21099;-80
2022/08/19 07:04:18;;;;;;;14.55;7.35;;;;;;;23.36;69.42;98803.95;1678384;84;21029;-80
2022/08/19 07:06:46;;;;;;;13.93;8.00;;;;;;;23.46;69.32;98806.69;1689457;84;21009;-80
2022/08/19 07:09:16;;;;;;;12.63;7.47;;;;;;;23.59;69.40;98802.52;1676235;84;21088;-80
2022/08/19 07:11:49;;;;;;;13.22;7.35;;;;;;;23.70;69.27;98803.80;1656745;84;21507;-80
2022/08/19 07:14:17;;;;;;;;;;;;;;;23.82;68.00;98811.23;1681816;84;21088;-79
2022/08/19 07:16:46;;;;;;;13.38;8.90;;;;;;;23.90;68.09;98812.75;1677363;84;20173;-80
2022/08/19 07:19:14;;;;;;;21.65;10.35;;;;;;;23.98;68.03;98811.61;1675967;84;21053;-80
2022/08/19 07:21:41;;;;;;;18.20;10.40;;;;;;;24.07;68.01;98813.13;1677910;84;21041;-80
2022/08/19 07:24:09;;;;;;;15.70;8.20;;;;;;;24.17;68.26;98810.89;1673062;84;21057;-79
2022/08/19 07:26:42;;;;;;;15.45;9.28;;;;;;;24.28;67.34;98818.42;1672598;84;21025;-80
2022/08/19 07:29:10;;;;;;;15.40;9.35;;;;;;;24.36;67.39;98819.92;1672395;84;21041;-80
2022/08/19 07:31:37;;;;;;;19.02;10.78;;;;;;;24.50;66.88;98824.91;1680627;84;21076;-79
2022/08/19 07:34:08;;;;;;;15.20;8.53;;;;;;;24.59;66.35;98827.23;1671143;84;22244;-80
2022/08/19 07:36:40;;;;;;;14.75;9.43;;;;;;;24.67;65.54;98821.25;1675637;84;21150;-81
2022/08/19 07:39:12;;;;;;;19.07;8.38;;;;;;;24.75;65.92;98820.95;1678297;84;21049;-80
2022/08/19 07:41:39;;;;;;;14.23;7.83;;;;;;;24.83;65.78;98812.30;1674533;84;21054;-79
2022/08/19 07:44:08;;;;;;;15.70;8.68;;;;;;;24.96;65.69;98818.68;1676843;84;21867;-79
2022/08/19 07:46:37;;;;;;;14.65;8.43;;;;;;;25.04;64.37;98819.33;1711131;82;21449;-81
2022/08/19 07:49:05;;;;;;;13.50;8.25;;;;;;;25.17;65.47;98818.59;1714186;82;21012;-80
2022/08/19 07:51:33;;;;;;;14.05;8.23;;;;;;;25.26;64.39;98818.27;1706902;82;21004;-82
2022/08/19 07:54:00;;;;;;;11.78;7.58;;;;;;;25.35;64.55;98817.45;1723919;82;21015;-81
2022/08/19 07:56:27;;;;;;;13.10;8.13;;;;;;;25.44;63.79;98811.27;1652627;85;20977;-80
2022/08/19 07:58:54;;;;;;;11.80;8.00;;;;;;;25.53;63.39;98808.27;1704038;82;21027;-79
2022/08/19 08:01:24;;;;;;;13.13;7.97;;;;;;;25.60;63.92;98804.05;1709831;82;21583;-79
2022/08/19 08:09:27;;;;;;;13.75;9.18;;;;;;;25.90;64.11;98798.19;1553744;91;21586;-79
2022/08/19 08:11:59;;;;;;;16.73;8.03;;;;;;;26.04;63.97;98794.27;1632039;85;21060;-81
2022/08/19 08:14:32;;;;;;;12.23;7.10;;;;;;;26.18;63.40;98789.80;1719350;82;21039;-80
2022/08/19 08:16:59;;;;;;;16.12;7.22;;;;;;;26.30;62.50;98791.79;1693925;82;21000;-79
2022/08/19 08:19:28;;;;;;;9.73;6.62;;;;;;;26.37;62.84;98793.73;1714818;82;21027;-80
2022/08/19 08:21:58;;;;;;;11.70;7.12;;;;;;;26.47;62.35;98788.86;1676919;84;21150;-79
2022/08/19 08:24:28;;;;;;;12.50;6.60;;;;;;;26.57;59.93;98786.98;1676566;84;21490;-81
2022/08/19 08:26:55;;;;;;;12.10;6.42;;;;;;;26.65;61.33;98783.11;1680682;84;21619;-80
2022/08/19 08:29:22;;;;;;;10.35;6.35;;;;;;;26.74;60.29;98780.03;1681334;84;21036;-80
2022/08/19 08:31:49;;;;;;;10.38;7.35;;;;;;;26.78;60.04;98775.61;1679332;84;21056;-81
2022/08/19 08:34:16;;;;;;;12.25;7.55;;;;;;;26.89;59.67;98774.55;1674582;84;21028;-82
2022/08/19 08:36:45;;;;;;;11.08;6.47;;;;;;;26.97;58.68;98776.45;1712024;82;21603;-80
2022/08/19 08:39:16;;;;;;;13.98;6.58;;;;;;;27.03;55.87;98769.69;1715224;83;21031;-80
2022/08/19 08:42:00;;;;;;;12.43;6.70;;;;;;;27.12;58.25;98765.62;1714897;83;21519;-78
2022/08/19 08:45:02;;;;;;;16.27;7.00;;;;;;;27.25;58.22;98765.25;1673137;84;21060;-80
2022/08/19 08:47:36;;;;;;;12.73;6.67;;;;;;;27.34;57.08;98765.67;1670458;86;21061;-80
2022/08/19 08:50:17;;;;;;;12.75;7.65;;;;;;;27.45;56.98;98759.25;1669998;85;21057;-80
2022/08/19 08:52:47;;;;;;;9.45;6.30;;;;;;;27.51;56.32;98755.12;1670133;86;21056;-80
2022/08/19 08:55:21;;;;;;;12.43;6.37;;;;;;;27.57;56.79;98758.03;1670228;86;21065;-78
2022/08/19 08:57:54;;;;;;;11.60;6.70;;;;;;;27.66;54.85;98748.23;1670330;84;21057;-79
2022/08/19 09:00:30;;;;;;;9.43;6.53;;;;;;;27.75;55.84;98748.65;1670347;84;21037;-79
2022/08/19 09:03:01;;;;;;;9.78;6.37;;;;;;;27.85;55.75;98755.70;1670229;85;21089;-80
2022/08/19 09:05:53;;;;;;;11.15;6.87;;;;;;;27.95;55.60;98747.11;1670171;85;21053;-79
2022/08/19 09:09:00;;;;;;;11.08;6.47;;;;;;;28.06;54.99;98740.67;1670145;85;21049;-80
2022/08/19 09:11:44;;;;;;;11.25;6.30;;;;;;;28.17;53.71;98741.70;1669869;84;21610;-80
2022/08/19 09:14:31;;;;;;;12.45;7.60;;;;;;;28.25;54.38;98744.45;1669942;84;21057;-79
2022/08/19 09:16:59;;;;;;;11.35;6.35;;;;;;;28.35;53.33;98746.97;1678769;84;21047;-80
2022/08/19 09:19:25;;;;;;;10.32;6.15;;;;;;;28.44;53.22;98747.86;1684312;84;21097;-79
2022/08/19 09:21:52;;;;;;;8.50;6.50;;;;;;;28.51;53.15;98739.55;1670555;84;21069;-79
2022/08/19 09:24:19;;;;;;;14.15;6.60;;;;;;;28.62;52.95;98739.25;1670827;85;21074;-81
2022/08/19 09:26:46;;;;;;;14.13;6.53;;;;;;;28.68;52.41;98741.27;1670340;84;21057;-80
2022/08/19 09:29:13;;;;;;;10.15;6.00;;;;;;;28.79;52.61;98734.80;1670193;84;20989;-80
2022/08/19 09:31:40;;;;;;;13.35;6.50;;;;;;;28.90;52.16;98738.48;1670028;86;21002;-80
2022/08/19 09:34:08;;;;;;;10.28;5.97;;;;;;;28.93;52.32;98726.13;1669950;86;21104;-80
2022/08/19 09:36:38;;;;;;;11.45;5.42;;;;;;;29.05;50.94;98729.32;1670201;84;21049;-80
2022/08/19 09:39:05;;;;;;;9.18;5.95;;;;;;;29.10;50.67;98732.83;1669846;85;21006;-80
2022/08/19 09:41:32;;;;;;;10.03;5.40;;;;;;;29.17;50.50;98736.55;1682109;84;21029;-80
2022/08/19 09:43:59;;;;;;;8.50;5.22;;;;;;;29.24;47.99;98728.69;1670057;84;21585;-80
2022/08/19 09:46:28;;;;;;;9.88;5.78;;;;;;;29.29;46.55;98731.20;1652528;85;21104;-80
2022/08/19 09:48:59;;;;;;;8.65;5.17;;;;;;;29.39;48.98;98732.38;1669128;85;21612;-80
2022/08/19 09:51:28;;;;;;;8.45;5.35;;;;;;;29.47;47.66;98728.34;1686051;84;21053;-79
2022/08/19 09:53:59;;;;;;;11.73;5.45;;;;;;;29.54;47.49;98729.36;1668140;86;21057;-80
2022/08/19 09:56:25;;;;;;;8.25;5.15;;;;;;;29.67;47.30;98728.83;1668285;85;21045;-79
2022/08/19 09:58:52;;;;;;;7.78;5.45;;;;;;;29.76;47.97;98718.95;1672517;85;21029;-79
2022/08/19 10:01:24;;;;;;;10.28;6.03;;;;;;;29.86;47.91;98720.11;1668495;85;21045;-79
2022/08/19 10:03:55;;;;;;;10.88;5.22;;;;;;;29.92;46.45;98720.28;1668186;85;21090;-80
2022/08/19 10:06:26;;;;;;;7.50;5.03;;;;;;;30.01;47.36;98722.42;1658417;85;21061;-79
2022/08/19 10:08:53;;;;;;;7.70;4.17;;;;;;;30.15;46.92;98720.87;1645058;86;21489;-79
2022/08/19 10:11:20;;;;;;;9.60;4.90;;;;;;;30.28;46.18;98716.27;1667976;86;21037;-79
2022/08/19 10:13:48;;;;;;;7.37;4.87;;;;;;;30.35;46.59;98705.73;1667978;85;20998;-80
2022/08/19 10:16:22;;;;;;;6.95;4.83;;;;;;;30.46;45.78;98706.19;1667985;86;21033;-79
2022/08/19 10:18:50;;;;;;;9.23;4.97;;;;;;;30.56;46.25;98698.41;1679916;84;21103;-80
2022/08/19 10:21:24;;;;;;;8.35;4.70;;;;;;;30.68;46.26;98698.33;1646085;86;21045;-80
2022/08/19 10:23:57;;;;;;;9.75;4.75;;;;;;;30.79;46.13;98692.56;1667107;85;21050;-79
2022/08/19 10:26:35;;;;;;;8.60;6.00;;;;;;;30.91;45.52;98689.82;1668131;85;21045;-79
2022/08/19 10:29:04;;;;;;;7.87;4.87;;;;;;;31.05;45.24;98689.55;1671284;84;21048;-80
2022/08/19 10:31:34;;;;;;;6.67;4.35;;;;;;;31.18;44.67;98691.64;1668049;85;21045;-79
2022/08/19 10:34:01;;;;;;;7.70;5.25;;;;;;;31.26;44.78;98690.23;1668086;85;21017;-79
2022/08/19 10:36:35;;;;;;;11.30;5.50;;;;;;;31.40;45.23;98679.71;1668114;85;21093;-79
2022/08/19 10:39:07;;;;;;;8.05;4.78;;;;;;;31.55;45.14;98683.78;1662562;85;21045;-79
2022/08/19 10:41:37;;;;;;;7.60;4.70;;;;;;;31.70;44.47;98683.30;1652332;85;21097;-79
2022/08/19 10:44:08;;;;;;;10.25;4.75;;;;;;;31.82;43.22;98687.70;1675919;84;21096;-80
2022/08/19 10:46:42;;;;;;;10.90;5.22;;;;;;;31.78;42.66;98688.58;1676006;84;21041;-80
2022/08/19 10:49:11;;;;;;;6.72;4.78;;;;;;;31.78;42.83;98681.86;1655184;85;21570;-79
2022/08/19 10:56:50;;;;;;;9.35;4.62;;;;;;;31.94;41.48;98681.36;1682303;84;21084;-79
2022/08/19 10:56:55;;;;;;;7.78;5.08;;;;;;;31.95;41.59;98676.29;1686728;84;21069;-80
2022/08/19 10:59:29;;;;;;;6.70;4.62;;;;;;;32.00;40.65;98677.92;1676664;85;21073;-80
2022/08/19 11:02:02;;;;;;;7.92;5.08;;;;;;;32.06;41.48;98674.52;1678781;85;21002;-80
2022/08/19 11:04:29;;;;;;;9.80;4.95;;;;;;;32.11;40.78;98677.45;1678524;84;20990;-80
2022/08/19 11:06:56;;;;;;;8.33;4.72;;;;;;;32.18;41.26;98668.98;1679913;82;21045;-79
2022/08/19 11:09:29;;;;;;;8.15;4.40;;;;;;;32.32;40.95;98669.97;1677270;84;21096;-80
2022/08/19 11:11:56;;;;;;;9.90;4.83;;;;;;;32.35;40.64;98672.30;1676143;84;21018;-80
2022/08/19 11:14:25;;;;;;;10.23;4.53;;;;;;;32.35;39.68;98662.03;1669451;84;21097;-78
2022/08/19 11:16:55;;;;;;;9.23;4.78;;;;;;;32.42;38.64;98665.64;1676332;85;21017;-80
2022/08/19 11:19:23;;;;;;;8.13;5.22;;;;;;;32.45;39.90;98664.75;1676273;85;20981;-80
2022/08/19 11:21:51;;;;;;;11.00;6.33;;;;;;;32.57;39.42;98668.30;1676041;84;21085;-80
2022/08/19 11:24:22;;;;;;;9.55;5.85;;;;;;;32.65;40.03;98660.97;1676378;85;21069;-80
2022/08/19 11:26:52;;;;;;;8.50;5.15;;;;;;;32.83;40.29;98663.21;1676624;84;21013;-80
2022/08/19 11:29:21;;;;;;;9.75;4.87;;;;;;;33.04;39.19;98659.66;1676504;84;21529;-80
2022/08/19 11:31:50;;;;;;;9.48;4.83;;;;;;;33.18;39.52;98658.47;1656415;86;21942;-80
2022/08/19 11:34:22;;;;;;;8.73;4.97;;;;;;;33.31;38.93;98650.98;1676281;86;21190;-79
2022/08/19 11:36:51;;;;;;;10.13;5.15;;;;;;;33.40;36.58;98657.38;1674796;85;21056;-81
2022/08/19 11:39:21;;;;;;;7.72;4.60;;;;;;;33.37;37.75;98655.62;1674191;84;21093;-79
2022/08/19 11:41:49;;;;;;;8.23;4.50;;;;;;;33.46;37.56;98657.12;1670191;84;21017;-79
2022/08/19 11:44:16;;;;;;;8.10;4.40;;;;;;;33.58;35.38;98650.67;1668087;85;21695;-80
2022/08/19 11:46:47;;;;;;;7.12;4.30;;;;;;;33.61;36.31;98638.16;1661329;86;21021;-80
2022/08/19 11:49:18;;;;;;;6.25;4.60;;;;;;;33.66;36.82;98643.31;1667714;85;21154;-80
2022/08/19 11:51:46;;;;;;;5.83;4.30;;;;;;;33.87;36.62;98639.67;1668862;86;21069;-79
2022/08/19 11:54:14;;;;;;;7.22;4.53;;;;;;;33.97;35.80;98637.13;1668245;86;21105;-78
2022/08/19 11:56:42;;;;;;;7.67;4.97;;;;;;;34.08;34.33;98636.54;1668422;86;21053;-80
2022/08/19 11:59:09;;;;;;;11.60;4.50;;;;;;;34.20;34.17;98626.89;1669672;85;21557;-79
2022/08/19 12:01:36;;;;;;;8.03;4.55;;;;;;;34.32;35.74;98629.84;1696407;84;21057;-81
2022/08/19 12:04:04;;;;;;;8.08;4.42;;;;;;;34.48;34.92;98627.28;1677569;84;21571;-81
2022/08/19 12:06:34;;;;;;;12.33;4.80;;;;;;;34.62;34.93;98629.45;1667804;86;21024;-80
2022/08/19 12:09:05;;;;;;;7.90;4.08;;;;;;;34.77;34.91;98622.05;1714704;82;21071;-80
2022/08/19 12:11:32;;;;;;;7.03;4.30;;;;;;;34.91;34.15;98624.23;1717673;82;21015;-80
2022/08/19 12:13:59;;;;;;;11.10;4.20;;;;;;;35.05;33.98;98626.42;1673633;86;21027;-80
2022/08/19 12:16:28;;;;;;;8.20;4.53;;;;;;;35.08;32.71;98623.81;1682752;84;21065;-80
2022/08/19 12:18:57;;;;;;;8.08;3.95;;;;;;;35.09;30.17;98615.51;1669962;84;21548;-79
2022/08/19 12:21:31;;;;;;;9.03;4.60;;;;;;;35.19;32.77;98610.54;1670350;85;21537;-81
2022/08/19 12:23:57;;;;;;;6.97;4.10;;;;;;;35.34;29.50;98614.38;1669640;86;21153;-79
2022/08/19 12:26:26;;;;;;;10.18;4.22;;;;;;;35.71;31.86;98615.26;1689581;84;21060;-81
2022/08/19 12:28:54;;;;;;;7.55;4.70;;;;;;;36.18;31.25;98605.12;1675805;84;21585;-81
2022/08/19 12:31:21;;;;;;;6.37;4.17;;;;;;;36.71;31.93;98610.73;1673294;86;21069;-81
2022/08/19 12:33:48;;;;;;;5.97;3.92;;;;;;;37.27;31.60;98602.30;1669556;84;21659;-82